Terminal Aerodrome Forecast
Issued by NWS

Current Version | Previous Version | Graphics & Text | Print | Product List | Glossary On
Versions: 1 2 3 4 5 6 7 8 9 10 11 12 13 14 15 16
000
FTUS41 KPBZ 231100
TAFHLG
TAF
KHLG 231129Z 2312/2412 20008KT P6SM BKN080
     FM231700 17006KT P6SM SCT050 BKN200
     FM240200 15010KT 6SM -RA BKN050
     FM240400 18012G20KT 5SM -RA OVC030=

USA.gov is the U.S. government's official web portal to all federal, state and local government web resources and services.